sensor_id;sensor_type;location;lat;lon;timestamp;temperature;humidity
41547;DHT22;27271;45.412;10.852;2024-02-21T00:00:53;6.30;99.90
41547;DHT22;27271;45.412;10.852;2024-02-21T00:04:16;6.30;99.90
41547;DHT22;27271;45.412;10.852;2024-02-21T00:07:38;6.20;99.90
41547;DHT22;27271;45.412;10.852;2024-02-21T00:11:00;6.30;99.90
41547;DHT22;27271;45.412;10.852;2024-02-21T00:14:22;6.20;99.90
41547;DHT22;27271;45.412;10.852;2024-02-21T00:17:45;6.30;99.90
41547;DHT22;27271;45.412;10.852;2024-02-21T00:21:07;6.30;99.90
41547;DHT22;27271;45.412;10.852;2024-02-21T00:24:29;6.20;99.90
41547;DHT22;27271;45.412;10.852;2024-02-21T00:27:51;6.10;99.90
41547;DHT22;27271;45.412;10.852;2024-02-21T00:31:15;6.10;99.90
41547;DHT22;27271;45.412;10.852;2024-02-21T00:34:39;6.00;99.90
41547;DHT22;27271;45.412;10.852;2024-02-21T00:38:01;6.00;99.90
41547;DHT22;27271;45.412;10.852;2024-02-21T00:41:25;6.00;99.90
41547;DHT22;27271;45.412;10.852;2024-02-21T00:44:47;5.90;99.90
41547;DHT22;27271;45.412;10.852;2024-02-21T00:48:09;5.90;99.90
41547;DHT22;27271;45.412;10.852;2024-02-21T00:51:32;5.70;99.90
41547;DHT22;27271;45.412;10.852;2024-02-21T00:54:54;5.70;99.90
41547;DHT22;27271;45.412;10.852;2024-02-21T00:58:16;5.70;99.90
41547;DHT22;27271;45.412;10.852;2024-02-21T01:01:38;5.80;99.90
41547;DHT22;27271;45.412;10.852;2024-02-21T01:05:04;5.90;99.90
41547;DHT22;27271;45.412;10.852;2024-02-21T01:08:26;5.80;99.90
41547;DHT22;27271;45.412;10.852;2024-02-21T01:11:48;5.80;99.90
41547;DHT22;27271;45.412;10.852;2024-02-21T01:15:10;5.60;99.90
41547;DHT22;27271;45.412;10.852;2024-02-21T01:18:34;5.50;99.90
41547;DHT22;27271;45.412;10.852;2024-02-21T01:21:56;5.50;99.90
41547;DHT22;27271;45.412;10.852;2024-02-21T01:25:18;5.40;99.90
41547;DHT22;27271;45.412;10.852;2024-02-21T01:28:40;5.40;99.90
41547;DHT22;27271;45.412;10.852;2024-02-21T01:32:03;5.40;1.00
41547;DHT22;27271;45.412;10.852;2024-02-21T01:35:25;5.50;1.00
41547;DHT22;27271;45.412;10.852;2024-02-21T01:38:47;5.40;99.90
41547;DHT22;27271;45.412;10.852;2024-02-21T01:42:09;5.30;1.00
41547;DHT22;27271;45.412;10.852;2024-02-21T01:45:32;5.30;1.00
41547;DHT22;27271;45.412;10.852;2024-02-21T01:48:57;5.20;1.00
41547;DHT22;27271;45.412;10.852;2024-02-21T01:52:20;5.10;1.00
41547;DHT22;27271;45.412;10.852;2024-02-21T01:55:42;5.20;1.00
41547;DHT22;27271;45.412;10.852;2024-02-21T01:59:05;5.20;1.00
41547;DHT22;27271;45.412;10.852;2024-02-21T02:02:31;5.10;1.00
41547;DHT22;27271;45.412;10.852;2024-02-21T02:10:15;5.10;1.00
41547;DHT22;27271;45.412;10.852;2024-02-21T02:13:37;5.10;1.00
41547;DHT22;27271;45.412;10.852;2024-02-21T02:17:00;5.10;1.00
41547;DHT22;27271;45.412;10.852;2024-02-21T02:20:22;5.10;1.00
41547;DHT22;27271;45.412;10.852;2024-02-21T02:23:44;5.40;1.00
41547;DHT22;27271;45.412;10.852;2024-02-21T02:27:06;5.80;1.00
41547;DHT22;27271;45.412;10.852;2024-02-21T02:30:28;5.80;1.00
41547;DHT22;27271;45.412;10.852;2024-02-21T02:33:51;5.80;1.00
41547;DHT22;27271;45.412;10.852;2024-02-21T02:37:13;5.90;1.00
41547;DHT22;27271;45.412;10.852;2024-02-21T02:40:36;5.80;1.00
41547;DHT22;27271;45.412;10.852;2024-02-21T02:43:58;5.70;1.00
41547;DHT22;27271;45.412;10.852;2024-02-21T02:47:20;5.50;99.90
41547;DHT22;27271;45.412;10.852;2024-02-21T02:50:42;5.40;1.00
41547;DHT22;27271;45.412;10.852;2024-02-21T02:54:04;5.30;1.00
41547;DHT22;27271;45.412;10.852;2024-02-21T02:57:26;5.10;1.00
41547;DHT22;27271;45.412;10.852;2024-02-21T03:00:48;5.00;1.00
41547;DHT22;27271;45.412;10.852;2024-02-21T03:04:10;5.10;1.00
41547;DHT22;27271;45.412;10.852;2024-02-21T03:07:32;5.00;1.00
41547;DHT22;27271;45.412;10.852;2024-02-21T03:10:54;5.00;1.00
41547;DHT22;27271;45.412;10.852;2024-02-21T03:14:16;4.90;1.00
41547;DHT22;27271;45.412;10.852;2024-02-21T03:17:40;4.80;1.00
41547;DHT22;27271;45.412;10.852;2024-02-21T03:21:02;4.80;1.00
41547;DHT22;27271;45.412;10.852;2024-02-21T03:24:25;4.70;1.00
41547;DHT22;27271;45.412;10.852;2024-02-21T03:27:47;4.80;1.00
41547;DHT22;27271;45.412;10.852;2024-02-21T03:31:11;4.80;1.00
41547;DHT22;27271;45.412;10.852;2024-02-21T03:34:34;4.70;1.00
41547;DHT22;27271;45.412;10.852;2024-02-21T03:37:56;4.70;1.00
41547;DHT22;27271;45.412;10.852;2024-02-21T03:41:18;4.70;1.00
41547;DHT22;27271;45.412;10.852;2024-02-21T03:44:44;4.70;1.00
41547;DHT22;27271;45.412;10.852;2024-02-21T03:48:06;4.80;1.00
41547;DHT22;27271;45.412;10.852;2024-02-21T03:51:28;4.80;1.00
41547;DHT22;27271;45.412;10.852;2024-02-21T03:54:50;4.90;1.00
41547;DHT22;27271;45.412;10.852;2024-02-21T03:58:15;4.90;1.00
41547;DHT22;27271;45.412;10.852;2024-02-21T04:01:37;4.90;1.00
41547;DHT22;27271;45.412;10.852;2024-02-21T04:05:00;4.80;99.90
41547;DHT22;27271;45.412;10.852;2024-02-21T04:08:23;4.70;99.90
41547;DHT22;27271;45.412;10.852;2024-02-21T04:11:45;4.60;99.90
41547;DHT22;27271;45.412;10.852;2024-02-21T04:15:07;4.60;99.90
41547;DHT22;27271;45.412;10.852;2024-02-21T04:18:30;4.70;99.90
41547;DHT22;27271;45.412;10.852;2024-02-21T04:21:51;4.60;99.90
41547;DHT22;27271;45.412;10.852;2024-02-21T04:25:14;4.50;99.90
41547;DHT22;27271;45.412;10.852;2024-02-21T04:28:37;4.50;99.90
41547;DHT22;27271;45.412;10.852;2024-02-21T04:32:01;4.40;99.90
41547;DHT22;27271;45.412;10.852;2024-02-21T04:35:23;4.40;99.90
41547;DHT22;27271;45.412;10.852;2024-02-21T04:38:45;4.40;99.90
41547;DHT22;27271;45.412;10.852;2024-02-21T04:42:07;4.50;99.90
41547;DHT22;27271;45.412;10.852;2024-02-21T04:45:29;4.40;99.90
41547;DHT22;27271;45.412;10.852;2024-02-21T04:48:51;4.40;99.90
41547;DHT22;27271;45.412;10.852;2024-02-21T04:52:14;4.40;99.90
41547;DHT22;27271;45.412;10.852;2024-02-21T04:55:36;4.40;99.90
41547;DHT22;27271;45.412;10.852;2024-02-21T04:58:58;4.30;99.90
41547;DHT22;27271;45.412;10.852;2024-02-21T05:02:20;4.20;99.90
41547;DHT22;27271;45.412;10.852;2024-02-21T05:05:44;4.10;99.90
41547;DHT22;27271;45.412;10.852;2024-02-21T05:09:07;4.10;99.90
41547;DHT22;27271;45.412;10.852;2024-02-21T05:12:32;4.10;99.90
41547;DHT22;27271;45.412;10.852;2024-02-21T05:15:54;4.00;99.90
41547;DHT22;27271;45.412;10.852;2024-02-21T05:19:16;4.00;99.90
41547;DHT22;27271;45.412;10.852;2024-02-21T05:22:38;3.90;99.90
41547;DHT22;27271;45.412;10.852;2024-02-21T05:26:00;4.00;99.90
41547;DHT22;27271;45.412;10.852;2024-02-21T05:29:23;4.00;99.90
41547;DHT22;27271;45.412;10.852;2024-02-21T05:32:45;4.00;99.90
41547;DHT22;27271;45.412;10.852;2024-02-21T05:36:07;4.00;99.90
41547;DHT22;27271;45.412;10.852;2024-02-21T05:39:29;4.00;99.90
41547;DHT22;27271;45.412;10.852;2024-02-21T05:42:51;4.00;99.90
41547;DHT22;27271;45.412;10.852;2024-02-21T05:46:13;4.00;99.90
41547;DHT22;27271;45.412;10.852;2024-02-21T05:49:36;4.00;99.90
41547;DHT22;27271;45.412;10.852;2024-02-21T05:52:58;4.00;99.90
41547;DHT22;27271;45.412;10.852;2024-02-21T05:56:21;4.20;99.90
41547;DHT22;27271;45.412;10.852;2024-02-21T05:59:43;4.20;99.90
41547;DHT22;27271;45.412;10.852;2024-02-21T06:03:06;4.20;99.90
41547;DHT22;27271;45.412;10.852;2024-02-21T06:06:29;4.10;99.90
41547;DHT22;27271;45.412;10.852;2024-02-21T06:09:51;4.20;99.90
41547;DHT22;27271;45.412;10.852;2024-02-21T06:13:13;4.10;99.90
41547;DHT22;27271;45.412;10.852;2024-02-21T06:16:35;4.10;99.90
41547;DHT22;27271;45.412;10.852;2024-02-21T06:19:57;4.20;99.90
41547;DHT22;27271;45.412;10.852;2024-02-21T06:23:19;4.30;99.90
41547;DHT22;27271;45.412;10.852;2024-02-21T06:26:42;4.40;99.90
41547;DHT22;27271;45.412;10.852;2024-02-21T06:30:04;4.50;99.90
41547;DHT22;27271;45.412;10.852;2024-02-21T06:33:26;4.60;99.90
41547;DHT22;27271;45.412;10.852;2024-02-21T06:36:49;4.70;99.90
41547;DHT22;27271;45.412;10.852;2024-02-21T06:40:11;4.70;85.30
41547;DHT22;27271;45.412;10.852;2024-02-21T06:43:33;4.80;99.90
41547;DHT22;27271;45.412;10.852;2024-02-21T06:46:55;4.90;99.90
41547;DHT22;27271;45.412;10.852;2024-02-21T06:50:17;4.90;99.90
41547;DHT22;27271;45.412;10.852;2024-02-21T06:53:41;5.00;99.90
41547;DHT22;27271;45.412;10.852;2024-02-21T06:57:03;5.10;99.90
41547;DHT22;27271;45.412;10.852;2024-02-21T07:00:25;5.30;99.90
41547;DHT22;27271;45.412;10.852;2024-02-21T07:03:48;5.50;99.90
41547;DHT22;27271;45.412;10.852;2024-02-21T07:07:10;5.80;99.90
41547;DHT22;27271;45.412;10.852;2024-02-21T07:10:32;5.90;13.80
41547;DHT22;27271;45.412;10.852;2024-02-21T07:13:55;6.20;27.90
41547;DHT22;27271;45.412;10.852;2024-02-21T07:17:17;6.50;1.00
41547;DHT22;27271;45.412;10.852;2024-02-21T07:20:39;6.90;1.00
41547;DHT22;27271;45.412;10.852;2024-02-21T07:24:03;7.20;1.00
41547;DHT22;27271;45.412;10.852;2024-02-21T07:27:25;7.40;1.00
41547;DHT22;27271;45.412;10.852;2024-02-21T07:30:50;7.90;1.00
41547;DHT22;27271;45.412;10.852;2024-02-21T07:34:12;8.60;1.00
41547;DHT22;27271;45.412;10.852;2024-02-21T07:37:34;9.50;1.00
41547;DHT22;27271;45.412;10.852;2024-02-21T07:40:56;10.40;1.00
41547;DHT22;27271;45.412;10.852;2024-02-21T07:44:18;11.10;99.90
41547;DHT22;27271;45.412;10.852;2024-02-21T07:47:41;11.70;99.90
41547;DHT22;27271;45.412;10.852;2024-02-21T07:51:04;12.40;99.90
41547;DHT22;27271;45.412;10.852;2024-02-21T07:54:26;13.00;99.90
41547;DHT22;27271;45.412;10.852;2024-02-21T07:57:48;13.60;99.90
41547;DHT22;27271;45.412;10.852;2024-02-21T08:01:11;13.90;99.90
41547;DHT22;27271;45.412;10.852;2024-02-21T08:04:33;14.20;99.90
41547;DHT22;27271;45.412;10.852;2024-02-21T08:07:56;14.50;99.90
41547;DHT22;27271;45.412;10.852;2024-02-21T08:11:19;14.90;99.90
41547;DHT22;27271;45.412;10.852;2024-02-21T08:14:41;15.20;99.90
41547;DHT22;27271;45.412;10.852;2024-02-21T08:18:04;15.40;99.90
41547;DHT22;27271;45.412;10.852;2024-02-21T08:21:26;15.70;99.90
41547;DHT22;27271;45.412;10.852;2024-02-21T08:24:48;15.60;99.90
41547;DHT22;27271;45.412;10.852;2024-02-21T08:28:10;15.80;99.90
41547;DHT22;27271;45.412;10.852;2024-02-21T08:31:32;16.40;99.90
41547;DHT22;27271;45.412;10.852;2024-02-21T08:34:56;16.90;99.90
41547;DHT22;27271;45.412;10.852;2024-02-21T08:38:18;16.50;99.90
41547;DHT22;27271;45.412;10.852;2024-02-21T08:41:40;16.40;99.90
41547;DHT22;27271;45.412;10.852;2024-02-21T08:45:17;16.90;99.90
41547;DHT22;27271;45.412;10.852;2024-02-21T08:48:40;17.30;99.90
41547;DHT22;27271;45.412;10.852;2024-02-21T08:52:06;17.40;99.90
41547;DHT22;27271;45.412;10.852;2024-02-21T08:55:28;17.70;99.90
41547;DHT22;27271;45.412;10.852;2024-02-21T08:58:50;18.20;99.90
41547;DHT22;27271;45.412;10.852;2024-02-21T09:02:12;18.50;99.90
41547;DHT22;27271;45.412;10.852;2024-02-21T09:05:35;18.70;99.90
41547;DHT22;27271;45.412;10.852;2024-02-21T09:08:57;19.20;99.90
41547;DHT22;27271;45.412;10.852;2024-02-21T09:12:20;18.80;99.90
41547;DHT22;27271;45.412;10.852;2024-02-21T09:15:42;19.20;99.90
41547;DHT22;27271;45.412;10.852;2024-02-21T09:19:05;18.90;99.90
41547;DHT22;27271;45.412;10.852;2024-02-21T09:22:27;19.40;99.90
41547;DHT22;27271;45.412;10.852;2024-02-21T09:25:49;18.90;99.90
41547;DHT22;27271;45.412;10.852;2024-02-21T09:29:11;18.60;99.90
41547;DHT22;27271;45.412;10.852;2024-02-21T09:32:33;18.50;99.90
41547;DHT22;27271;45.412;10.852;2024-02-21T09:35:56;18.50;99.90
41547;DHT22;27271;45.412;10.852;2024-02-21T09:39:18;18.40;99.90
41547;DHT22;27271;45.412;10.852;2024-02-21T09:42:41;19.20;99.90
41547;DHT22;27271;45.412;10.852;2024-02-21T09:46:03;20.00;99.90
41547;DHT22;27271;45.412;10.852;2024-02-21T09:49:32;20.10;99.90
41547;DHT22;27271;45.412;10.852;2024-02-21T09:53:01;20.00;99.90
41547;DHT22;27271;45.412;10.852;2024-02-21T09:56:27;19.80;99.90
41547;DHT22;27271;45.412;10.852;2024-02-21T09:59:50;19.90;99.90
41547;DHT22;27271;45.412;10.852;2024-02-21T10:03:13;20.30;99.90
41547;DHT22;27271;45.412;10.852;2024-02-21T10:06:35;20.40;99.90
41547;DHT22;27271;45.412;10.852;2024-02-21T10:10:05;20.40;99.90
41547;DHT22;27271;45.412;10.852;2024-02-21T10:13:29;19.80;99.90
41547;DHT22;27271;45.412;10.852;2024-02-21T10:16:58;18.80;99.90
41547;DHT22;27271;45.412;10.852;2024-02-21T10:20:24;18.50;99.90
41547;DHT22;27271;45.412;10.852;2024-02-21T10:23:48;18.40;99.90
41547;DHT22;27271;45.412;10.852;2024-02-21T10:27:11;19.40;99.90
41547;DHT22;27271;45.412;10.852;2024-02-21T10:30:34;18.50;99.90
41547;DHT22;27271;45.412;10.852;2024-02-21T10:33:57;18.20;99.90
41547;DHT22;27271;45.412;10.852;2024-02-21T10:37:20;18.40;99.90
41547;DHT22;27271;45.412;10.852;2024-02-21T10:40:43;18.10;99.90
41547;DHT22;27271;45.412;10.852;2024-02-21T10:44:08;17.70;99.90
41547;DHT22;27271;45.412;10.852;2024-02-21T10:47:32;18.20;99.90
41547;DHT22;27271;45.412;10.852;2024-02-21T10:51:10;18.50;99.90
41547;DHT22;27271;45.412;10.852;2024-02-21T10:58:29;19.60;99.90
41547;DHT22;27271;45.412;10.852;2024-02-21T11:01:52;19.60;99.90
41547;DHT22;27271;45.412;10.852;2024-02-21T11:05:20;18.90;99.90
41547;DHT22;27271;45.412;10.852;2024-02-21T11:08:42;19.40;99.90
41547;DHT22;27271;45.412;10.852;2024-02-21T11:12:06;19.40;99.90
41547;DHT22;27271;45.412;10.852;2024-02-21T11:15:28;19.10;99.90
41547;DHT22;27271;45.412;10.852;2024-02-21T11:18:50;18.50;99.90
41547;DHT22;27271;45.412;10.852;2024-02-21T11:22:17;17.90;99.90
41547;DHT22;27271;45.412;10.852;2024-02-21T11:25:40;18.20;99.90
41547;DHT22;27271;45.412;10.852;2024-02-21T11:29:02;18.00;99.90
41547;DHT22;27271;45.412;10.852;2024-02-21T11:32:26;18.10;99.90
41547;DHT22;27271;45.412;10.852;2024-02-21T11:35:52;18.30;99.90
41547;DHT22;27271;45.412;10.852;2024-02-21T11:39:23;17.80;99.90
41547;DHT22;27271;45.412;10.852;2024-02-21T11:42:46;18.40;99.90
41547;DHT22;27271;45.412;10.852;2024-02-21T11:46:08;18.10;99.90
41547;DHT22;27271;45.412;10.852;2024-02-21T11:49:35;18.00;99.90
41547;DHT22;27271;45.412;10.852;2024-02-21T11:52:58;17.60;99.90
41547;DHT22;27271;45.412;10.852;2024-02-21T11:56:20;17.60;99.90
41547;DHT22;27271;45.412;10.852;2024-02-21T11:59:42;17.90;99.90
41547;DHT22;27271;45.412;10.852;2024-02-21T12:03:06;18.00;99.90
41547;DHT22;27271;45.412;10.852;2024-02-21T12:06:28;17.60;99.90
41547;DHT22;27271;45.412;10.852;2024-02-21T12:09:51;17.20;99.90
41547;DHT22;27271;45.412;10.852;2024-02-21T12:13:13;17.50;99.90
41547;DHT22;27271;45.412;10.852;2024-02-21T12:16:36;17.40;99.90
41547;DHT22;27271;45.412;10.852;2024-02-21T12:20:05;17.40;99.90
41547;DHT22;27271;45.412;10.852;2024-02-21T12:23:27;17.90;99.90
41547;DHT22;27271;45.412;10.852;2024-02-21T12:26:53;17.30;99.90
41547;DHT22;27271;45.412;10.852;2024-02-21T12:30:16;17.00;99.90
41547;DHT22;27271;45.412;10.852;2024-02-21T12:33:38;17.20;99.90
41547;DHT22;27271;45.412;10.852;2024-02-21T12:37:01;17.40;99.90
41547;DHT22;27271;45.412;10.852;2024-02-21T12:40:24;17.70;99.90
41547;DHT22;27271;45.412;10.852;2024-02-21T12:43:47;18.00;99.90
41547;DHT22;27271;45.412;10.852;2024-02-21T12:47:09;17.80;99.90
41547;DHT22;27271;45.412;10.852;2024-02-21T12:50:31;17.50;99.90
41547;DHT22;27271;45.412;10.852;2024-02-21T12:53:53;17.50;99.90
41547;DHT22;27271;45.412;10.852;2024-02-21T12:57:16;17.70;99.90
41547;DHT22;27271;45.412;10.852;2024-02-21T13:00:38;17.30;99.90
41547;DHT22;27271;45.412;10.852;2024-02-21T13:04:00;17.30;99.90
41547;DHT22;27271;45.412;10.852;2024-02-21T13:07:23;17.60;99.90
41547;DHT22;27271;45.412;10.852;2024-02-21T13:10:45;17.40;99.90
41547;DHT22;27271;45.412;10.852;2024-02-21T13:14:07;17.20;99.90
41547;DHT22;27271;45.412;10.852;2024-02-21T13:17:30;16.60;99.90
41547;DHT22;27271;45.412;10.852;2024-02-21T13:20:54;16.50;99.90
41547;DHT22;27271;45.412;10.852;2024-02-21T13:24:16;16.70;99.90
41547;DHT22;27271;45.412;10.852;2024-02-21T13:27:38;17.10;99.90
41547;DHT22;27271;45.412;10.852;2024-02-21T13:31:00;17.10;99.90
41547;DHT22;27271;45.412;10.852;2024-02-21T13:34:22;16.90;99.90
41547;DHT22;27271;45.412;10.852;2024-02-21T13:37:44;16.70;99.90
41547;DHT22;27271;45.412;10.852;2024-02-21T13:41:07;16.20;99.90
41547;DHT22;27271;45.412;10.852;2024-02-21T13:44:29;16.30;99.90
41547;DHT22;27271;45.412;10.852;2024-02-21T13:47:51;16.40;99.90
41547;DHT22;27271;45.412;10.852;2024-02-21T13:51:13;16.80;99.90
41547;DHT22;27271;45.412;10.852;2024-02-21T13:54:36;16.80;99.90
41547;DHT22;27271;45.412;10.852;2024-02-21T13:57:58;16.90;99.90
41547;DHT22;27271;45.412;10.852;2024-02-21T14:01:20;17.00;99.90
41547;DHT22;27271;45.412;10.852;2024-02-21T14:04:42;17.00;99.90
41547;DHT22;27271;45.412;10.852;2024-02-21T14:08:06;16.90;99.90
41547;DHT22;27271;45.412;10.852;2024-02-21T14:11:28;16.60;99.90
41547;DHT22;27271;45.412;10.852;2024-02-21T14:14:50;16.40;99.90
41547;DHT22;27271;45.412;10.852;2024-02-21T14:18:13;16.50;99.90
41547;DHT22;27271;45.412;10.852;2024-02-21T14:21:38;16.30;99.90
41547;DHT22;27271;45.412;10.852;2024-02-21T14:25:00;16.30;99.90
41547;DHT22;27271;45.412;10.852;2024-02-21T14:28:23;16.10;99.90
41547;DHT22;27271;45.412;10.852;2024-02-21T14:31:45;16.10;99.90
41547;DHT22;27271;45.412;10.852;2024-02-21T14:35:07;16.10;99.90
41547;DHT22;27271;45.412;10.852;2024-02-21T14:38:30;16.20;99.90
41547;DHT22;27271;45.412;10.852;2024-02-21T14:41:53;16.10;99.90
41547;DHT22;27271;45.412;10.852;2024-02-21T14:45:15;15.90;99.90
41547;DHT22;27271;45.412;10.852;2024-02-21T14:48:37;15.90;99.90
41547;DHT22;27271;45.412;10.852;2024-02-21T14:51:59;15.60;99.90
41547;DHT22;27271;45.412;10.852;2024-02-21T14:55:22;15.40;99.90
41547;DHT22;27271;45.412;10.852;2024-02-21T14:58:44;15.40;99.90
41547;DHT22;27271;45.412;10.852;2024-02-21T15:02:12;15.50;99.90
41547;DHT22;27271;45.412;10.852;2024-02-21T15:05:34;15.30;99.90
41547;DHT22;27271;45.412;10.852;2024-02-21T15:08:57;15.30;99.90
41547;DHT22;27271;45.412;10.852;2024-02-21T15:12:19;15.50;99.90
41547;DHT22;27271;45.412;10.852;2024-02-21T15:15:41;15.50;99.90
41547;DHT22;27271;45.412;10.852;2024-02-21T15:19:03;15.50;99.90
41547;DHT22;27271;45.412;10.852;2024-02-21T15:22:25;15.50;99.90
41547;DHT22;27271;45.412;10.852;2024-02-21T15:25:47;15.30;99.90
41547;DHT22;27271;45.412;10.852;2024-02-21T15:29:09;15.10;99.90
41547;DHT22;27271;45.412;10.852;2024-02-21T15:32:32;15.10;99.90
41547;DHT22;27271;45.412;10.852;2024-02-21T15:35:54;15.10;99.90
41547;DHT22;27271;45.412;10.852;2024-02-21T15:39:16;15.20;99.90
41547;DHT22;27271;45.412;10.852;2024-02-21T15:42:41;15.20;99.90
41547;DHT22;27271;45.412;10.852;2024-02-21T15:46:03;15.10;99.90
41547;DHT22;27271;45.412;10.852;2024-02-21T15:49:25;15.00;99.90
41547;DHT22;27271;45.412;10.852;2024-02-21T15:52:47;15.10;99.90
41547;DHT22;27271;45.412;10.852;2024-02-21T15:56:09;15.00;99.90
41547;DHT22;27271;45.412;10.852;2024-02-21T15:59:32;14.80;99.90
41547;DHT22;27271;45.412;10.852;2024-02-21T16:02:54;14.80;99.90
41547;DHT22;27271;45.412;10.852;2024-02-21T16:06:16;14.70;99.90
41547;DHT22;27271;45.412;10.852;2024-02-21T16:09:38;14.50;99.90
41547;DHT22;27271;45.412;10.852;2024-02-21T16:13:05;14.30;99.90
41547;DHT22;27271;45.412;10.852;2024-02-21T16:16:28;14.10;99.90
41547;DHT22;27271;45.412;10.852;2024-02-21T16:19:51;13.90;99.90
41547;DHT22;27271;45.412;10.852;2024-02-21T16:23:14;13.70;99.90
41547;DHT22;27271;45.412;10.852;2024-02-21T16:26:37;13.40;99.90
41547;DHT22;27271;45.412;10.852;2024-02-21T16:29:59;13.20;99.90
41547;DHT22;27271;45.412;10.852;2024-02-21T16:33:21;12.90;99.90
41547;DHT22;27271;45.412;10.852;2024-02-21T16:36:44;12.70;99.90
41547;DHT22;27271;45.412;10.852;2024-02-21T16:40:06;12.50;99.90
41547;DHT22;27271;45.412;10.852;2024-02-21T16:43:29;12.20;99.90
41547;DHT22;27271;45.412;10.852;2024-02-21T16:46:53;12.00;99.90
41547;DHT22;27271;45.412;10.852;2024-02-21T16:50:16;11.80;99.90
41547;DHT22;27271;45.412;10.852;2024-02-21T16:53:38;11.60;99.90
41547;DHT22;27271;45.412;10.852;2024-02-21T16:57:00;11.50;99.90
41547;DHT22;27271;45.412;10.852;2024-02-21T17:00:23;11.40;99.90
41547;DHT22;27271;45.412;10.852;2024-02-21T17:03:45;11.30;99.90
41547;DHT22;27271;45.412;10.852;2024-02-21T17:07:07;11.30;99.90
41547;DHT22;27271;45.412;10.852;2024-02-21T17:10:29;11.10;99.90
41547;DHT22;27271;45.412;10.852;2024-02-21T17:13:53;11.00;99.90
41547;DHT22;27271;45.412;10.852;2024-02-21T17:17:15;10.90;1.00
41547;DHT22;27271;45.412;10.852;2024-02-21T17:20:37;10.90;1.00
41547;DHT22;27271;45.412;10.852;2024-02-21T17:23:59;10.80;1.00
41547;DHT22;27271;45.412;10.852;2024-02-21T17:27:21;10.70;1.00
41547;DHT22;27271;45.412;10.852;2024-02-21T17:30:43;10.70;1.00
41547;DHT22;27271;45.412;10.852;2024-02-21T17:34:06;10.60;1.00
41547;DHT22;27271;45.412;10.852;2024-02-21T17:37:28;10.50;1.00
41547;DHT22;27271;45.412;10.852;2024-02-21T17:40:50;10.50;1.00
41547;DHT22;27271;45.412;10.852;2024-02-21T17:44:13;10.50;1.00
41547;DHT22;27271;45.412;10.852;2024-02-21T17:47:35;10.30;1.00
41547;DHT22;27271;45.412;10.852;2024-02-21T17:50:57;10.20;1.00
41547;DHT22;27271;45.412;10.852;2024-02-21T17:54:20;10.10;1.00
41547;DHT22;27271;45.412;10.852;2024-02-21T17:57:44;10.10;1.00
41547;DHT22;27271;45.412;10.852;2024-02-21T18:01:06;10.10;1.00
41547;DHT22;27271;45.412;10.852;2024-02-21T18:04:28;10.00;1.00
41547;DHT22;27271;45.412;10.852;2024-02-21T18:07:51;10.00;1.00
41547;DHT22;27271;45.412;10.852;2024-02-21T18:11:13;10.00;1.00
41547;DHT22;27271;45.412;10.852;2024-02-21T18:14:37;10.00;1.00
41547;DHT22;27271;45.412;10.852;2024-02-21T18:18:00;9.80;1.00
41547;DHT22;27271;45.412;10.852;2024-02-21T18:21:22;9.80;1.00
41547;DHT22;27271;45.412;10.852;2024-02-21T18:24:47;9.70;1.00
41547;DHT22;27271;45.412;10.852;2024-02-21T18:28:09;9.60;1.00
41547;DHT22;27271;45.412;10.852;2024-02-21T18:31:32;9.60;1.00
41547;DHT22;27271;45.412;10.852;2024-02-21T18:34:54;9.50;1.00
41547;DHT22;27271;45.412;10.852;2024-02-21T18:38:18;9.30;1.00
41547;DHT22;27271;45.412;10.852;2024-02-21T18:41:40;9.20;1.00
41547;DHT22;27271;45.412;10.852;2024-02-21T18:45:06;9.10;1.00
41547;DHT22;27271;45.412;10.852;2024-02-21T18:48:28;9.10;1.00
41547;DHT22;27271;45.412;10.852;2024-02-21T18:51:52;9.00;1.00
41547;DHT22;27271;45.412;10.852;2024-02-21T18:55:14;9.00;1.00
41547;DHT22;27271;45.412;10.852;2024-02-21T18:58:38;8.90;1.00
41547;DHT22;27271;45.412;10.852;2024-02-21T19:02:00;8.80;1.00
41547;DHT22;27271;45.412;10.852;2024-02-21T19:05:22;8.70;1.00
41547;DHT22;27271;45.412;10.852;2024-02-21T19:08:45;8.80;1.00
41547;DHT22;27271;45.412;10.852;2024-02-21T19:12:08;8.70;1.00
41547;DHT22;27271;45.412;10.852;2024-02-21T19:15:34;8.60;1.00
41547;DHT22;27271;45.412;10.852;2024-02-21T19:18:57;8.60;1.00
41547;DHT22;27271;45.412;10.852;2024-02-21T19:22:19;8.60;1.00
41547;DHT22;27271;45.412;10.852;2024-02-21T19:25:42;8.60;1.00
41547;DHT22;27271;45.412;10.852;2024-02-21T19:29:05;8.60;1.00
41547;DHT22;27271;45.412;10.852;2024-02-21T19:32:27;8.50;1.00
41547;DHT22;27271;45.412;10.852;2024-02-21T19:35:49;8.50;1.00
41547;DHT22;27271;45.412;10.852;2024-02-21T19:39:11;8.40;1.00
41547;DHT22;27271;45.412;10.852;2024-02-21T19:42:33;8.30;1.00
41547;DHT22;27271;45.412;10.852;2024-02-21T19:45:56;8.30;1.00
41547;DHT22;27271;45.412;10.852;2024-02-21T19:49:18;8.20;1.00
41547;DHT22;27271;45.412;10.852;2024-02-21T19:52:40;8.20;1.00
41547;DHT22;27271;45.412;10.852;2024-02-21T19:56:05;8.10;1.00
41547;DHT22;27271;45.412;10.852;2024-02-21T19:59:29;8.10;1.00
41547;DHT22;27271;45.412;10.852;2024-02-21T20:02:51;8.10;1.00
41547;DHT22;27271;45.412;10.852;2024-02-21T20:06:14;8.10;1.00
41547;DHT22;27271;45.412;10.852;2024-02-21T20:09:36;8.10;1.00
41547;DHT22;27271;45.412;10.852;2024-02-21T20:13:02;8.10;1.00
41547;DHT22;27271;45.412;10.852;2024-02-21T20:16:24;8.10;1.00
41547;DHT22;27271;45.412;10.852;2024-02-21T20:19:46;8.10;1.00
41547;DHT22;27271;45.412;10.852;2024-02-21T20:23:08;8.10;1.00
41547;DHT22;27271;45.412;10.852;2024-02-21T20:26:36;8.20;1.00
41547;DHT22;27271;45.412;10.852;2024-02-21T20:30:01;8.20;1.00
41547;DHT22;27271;45.412;10.852;2024-02-21T20:33:24;8.30;1.00
41547;DHT22;27271;45.412;10.852;2024-02-21T20:36:46;8.30;1.00
41547;DHT22;27271;45.412;10.852;2024-02-21T20:40:08;8.30;1.00
41547;DHT22;27271;45.412;10.852;2024-02-21T20:43:33;8.30;1.00
41547;DHT22;27271;45.412;10.852;2024-02-21T20:46:55;8.30;1.00
41547;DHT22;27271;45.412;10.852;2024-02-21T20:50:17;8.30;1.00
41547;DHT22;27271;45.412;10.852;2024-02-21T20:53:41;8.30;1.00
41547;DHT22;27271;45.412;10.852;2024-02-21T20:57:04;8.20;1.00
41547;DHT22;27271;45.412;10.852;2024-02-21T21:00:26;8.20;1.00
41547;DHT22;27271;45.412;10.852;2024-02-21T21:03:48;8.10;1.00
41547;DHT22;27271;45.412;10.852;2024-02-21T21:07:11;8.10;1.00
41547;DHT22;27271;45.412;10.852;2024-02-21T21:10:33;8.00;1.00
41547;DHT22;27271;45.412;10.852;2024-02-21T21:13:55;7.90;1.00
41547;DHT22;27271;45.412;10.852;2024-02-21T21:17:17;7.90;1.00
41547;DHT22;27271;45.412;10.852;2024-02-21T21:20:39;7.90;1.00
41547;DHT22;27271;45.412;10.852;2024-02-21T21:24:03;7.80;1.00